Portada
METAR-TAF:

METAR-TAF

Aeroports :

Michael J. Smith Field

Beaufort, Carolina del Nord, Estats Units d'Amèrica

latitud: 34-44-01N, longitud: 076-39-38W, altitud: 3 m

Observació

L'informe es va fer fa 1 hora i 4 minuts, a les 21:58 UTC
Vent 7 kt del Nord/Nord-Est
Temperatura 4°C
Humitat 60%
Pressió 1029 hPa
Visibilitat: 16.1 km
Cel clar

METAR: KMRH 132158Z AUTO 03007KT 10SM CLR 04/M03 A3038 RMK AO2 SLP286 I1000 T00391033

Hora: 18:02 (23:02 UTC)


TAF: manca

Observacions i pronòstics meteorològics de més de 4000 aeroports (METAR i TAF).

Les estacions disponibles són els punts grocs i vermells al mapa.

Posi el ratolí al punt desitjat per veure el nom de l'estació.

Feu clic per veure les observacions i els pronòstics meteorològics.

Per canviar el mapa: feu clic els botons verds amb una creu de color negre per apropar; al botó verd amb un guió per allunyar la imatge; o en les fletxes verdes per a mapes adjacents.


METAR-TAF: